createdAt,value
2019-03-24T00:00:30.366Z,1001.64
2019-03-24T00:01:40.432Z,1001.63
2019-03-24T00:02:31.348Z,1001.68
2019-03-24T00:03:30.335Z,1001.67
2019-03-24T00:04:30.340Z,1001.61
2019-03-24T00:05:30.335Z,1001.62
2019-03-24T00:06:30.303Z,1001.55
2019-03-24T00:07:30.320Z,1001.57
2019-03-24T00:08:30.320Z,1001.56
2019-03-24T00:09:30.299Z,1001.54
2019-03-24T00:10:30.309Z,1001.55
2019-03-24T00:11:30.278Z,1001.59
2019-03-24T00:12:30.237Z,1001.56
2019-03-24T00:13:30.224Z,1001.51
2019-03-24T00:14:30.231Z,1001.49
2019-03-24T00:15:30.222Z,1001.50
2019-03-24T00:16:30.192Z,1001.49
2019-03-24T00:17:30.201Z,1001.46
2019-03-24T00:18:30.178Z,1001.38
2019-03-24T00:19:30.165Z,1001.40
2019-03-24T00:20:30.151Z,1001.46
2019-03-24T00:21:30.147Z,1001.42
2019-03-24T00:22:30.126Z,1001.37
2019-03-24T00:23:30.111Z,1001.42
2019-03-24T00:24:30.102Z,1001.44
2019-03-24T00:25:30.099Z,1001.42
2019-03-24T00:26:30.081Z,1001.41
2019-03-24T00:27:30.069Z,1001.49
2019-03-24T00:28:30.058Z,1001.46
2019-03-24T00:29:30.044Z,1001.44
2019-03-24T00:30:30.035Z,1001.45
2019-03-24T00:31:30.035Z,1001.47
2019-03-24T00:32:30.018Z,1001.45
2019-03-24T00:33:30.005Z,1001.45
2019-03-24T00:34:30.039Z,1001.49
2019-03-24T00:35:29.986Z,1001.48
2019-03-24T00:36:29.969Z,1001.51
2019-03-24T00:37:29.970Z,1001.42
2019-03-24T00:38:29.949Z,1001.48
2019-03-24T00:39:29.947Z,1001.42
2019-03-24T00:40:29.929Z,1001.41
2019-03-24T00:41:29.916Z,1001.47
2019-03-24T00:42:29.907Z,1001.42
2019-03-24T00:43:29.889Z,1001.46
2019-03-24T00:44:29.881Z,1001.45
2019-03-24T00:45:36.868Z,1001.43
2019-03-24T00:46:30.863Z,1001.40
2019-03-24T00:47:29.852Z,1001.40
2019-03-24T00:48:29.842Z,1001.45
2019-03-24T00:49:29.837Z,1001.41
2019-03-24T00:50:29.813Z,1001.41
2019-03-24T00:51:29.808Z,1001.37
2019-03-24T00:52:29.792Z,1001.42
2019-03-24T00:53:29.782Z,1001.40
2019-03-24T00:54:29.772Z,1001.41
2019-03-24T00:55:29.770Z,1001.40
2019-03-24T00:56:29.753Z,1001.48
2019-03-24T00:57:29.739Z,1001.44
2019-03-24T00:58:29.736Z,1001.41
2019-03-24T00:59:29.719Z,1001.33
2019-03-24T01:00:29.708Z,1001.40
2019-03-24T01:01:29.694Z,1001.39
2019-03-24T01:02:29.684Z,1001.37
2019-03-24T01:03:29.678Z,1001.33
2019-03-24T01:04:29.666Z,1001.35
2019-03-24T01:05:29.648Z,1001.35
2019-03-24T01:06:29.640Z,1001.33
2019-03-24T01:07:29.693Z,1001.34
2019-03-24T01:08:29.635Z,1001.39
2019-03-24T01:09:29.608Z,1001.39
2019-03-24T01:10:29.599Z,1001.34
2019-03-24T01:11:29.586Z,1001.41
2019-03-24T01:12:29.575Z,1001.41
2019-03-24T01:13:29.564Z,1001.38
2019-03-24T01:14:29.559Z,1001.41
2019-03-24T01:15:29.538Z,1001.39
2019-03-24T01:16:29.535Z,1001.37
2019-03-24T01:17:29.517Z,1001.36
2019-03-24T01:18:29.504Z,1001.40
2019-03-24T01:19:29.494Z,1001.39
2019-03-24T01:20:29.484Z,1001.34
2019-03-24T01:21:29.474Z,1001.31
2019-03-24T01:22:29.466Z,1001.26
2019-03-24T01:23:29.448Z,1001.35
2019-03-24T01:24:29.439Z,1001.25
2019-03-24T01:25:29.432Z,1001.28
2019-03-24T01:26:29.415Z,1001.27
2019-03-24T01:27:29.408Z,1001.29
2019-03-24T01:28:29.392Z,1001.31
2019-03-24T01:29:29.381Z,1001.24
2019-03-24T01:30:29.371Z,1001.22
2019-03-24T01:31:29.359Z,1001.21
2019-03-24T01:32:29.357Z,1001.22
2019-03-24T01:33:29.340Z,1001.20
2019-03-24T01:34:29.326Z,1001.17
2019-03-24T01:35:29.315Z,1001.11
2019-03-24T01:36:29.302Z,1001.18
2019-03-24T01:37:29.508Z,1001.19
2019-03-24T01:38:29.290Z,1001.18
2019-03-24T01:39:29.269Z,1001.14
2019-03-24T01:40:29.257Z,1001.22
2019-03-24T01:41:29.246Z,1001.21
2019-03-24T01:42:29.235Z,1001.15
2019-03-24T01:43:29.224Z,1001.16
2019-03-24T01:44:29.213Z,1001.13
2019-03-24T01:45:29.206Z,1001.16
2019-03-24T01:46:29.191Z,1001.18
2019-03-24T01:47:29.182Z,1001.14
2019-03-24T01:48:29.169Z,1001.16
2019-03-24T01:49:29.158Z,1001.15
2019-03-24T01:50:29.148Z,1001.10
2019-03-24T01:51:29.144Z,1001.15
2019-03-24T01:52:29.129Z,1001.13
2019-03-24T01:53:29.119Z,1001.12
2019-03-24T01:54:29.280Z,1001.04
2019-03-24T01:55:29.220Z,1001.04
2019-03-24T01:56:29.141Z,1001.07
2019-03-24T01:57:29.067Z,1001.04
2019-03-24T01:58:29.057Z,1001.10
2019-03-24T01:59:29.043Z,1001.11
2019-03-24T02:00:29.039Z,1001.04
2019-03-24T02:01:29.054Z,1001.08
2019-03-24T02:02:29.019Z,1001.11
2019-03-24T02:03:29.010Z,1001.12
2019-03-24T02:04:28.989Z,1001.12
2019-03-24T02:05:28.982Z,1001.14
2019-03-24T02:06:28.972Z,1001.16
2019-03-24T02:07:28.955Z,1001.18
2019-03-24T02:08:28.949Z,1001.20
2019-03-24T02:09:28.938Z,1001.21
2019-03-24T02:10:28.932Z,1001.16
2019-03-24T02:11:28.913Z,1001.13
2019-03-24T02:12:28.905Z,1001.12
2019-03-24T02:13:28.890Z,1001.15
2019-03-24T02:14:28.883Z,1001.17
2019-03-24T02:15:28.873Z,1001.10
2019-03-24T02:16:28.866Z,1001.15
2019-03-24T02:17:28.876Z,1001.10
2019-03-24T02:18:28.835Z,1001.14
2019-03-24T02:19:28.829Z,1001.09
2019-03-24T02:20:28.836Z,1001.11
2019-03-24T02:21:28.812Z,1001.11
2019-03-24T02:22:28.796Z,1001.09
2019-03-24T02:23:28.787Z,1001.11
2019-03-24T02:24:28.778Z,1001.08
2019-03-24T02:25:28.760Z,1001.04
2019-03-24T02:26:28.757Z,1001.04
2019-03-24T02:27:28.735Z,1001.09
2019-03-24T02:28:28.733Z,1001.06
2019-03-24T02:29:28.716Z,1001.03
2019-03-24T02:30:28.710Z,1001.05
2019-03-24T02:31:28.697Z,1001.04
2019-03-24T02:32:28.687Z,1001.07
2019-03-24T02:33:28.682Z,1000.95
2019-03-24T02:34:28.667Z,1001.01
2019-03-24T02:35:28.651Z,1000.96
2019-03-24T02:36:28.641Z,1000.96
2019-03-24T02:37:28.630Z,1000.98
2019-03-24T02:38:28.614Z,1000.99
2019-03-24T02:39:28.605Z,1001.01
2019-03-24T02:40:28.602Z,1001.04
2019-03-24T02:41:28.584Z,1001.04
2019-03-24T02:42:28.572Z,1001.02
2019-03-24T02:43:28.566Z,1001.04
2019-03-24T02:44:28.569Z,1001.02
2019-03-24T02:45:28.545Z,1000.96
2019-03-24T02:46:28.538Z,1001.04
2019-03-24T02:47:28.525Z,1000.97
2019-03-24T02:48:28.509Z,1001.00
2019-03-24T02:49:28.500Z,1000.97
2019-03-24T02:50:28.486Z,1000.95
2019-03-24T02:51:28.478Z,1000.98
2019-03-24T02:52:28.463Z,1000.94
2019-03-24T02:53:28.452Z,1000.92
2019-03-24T02:54:28.442Z,1001.02
2019-03-24T02:55:28.435Z,1001.04
2019-03-24T02:56:28.417Z,1000.98
2019-03-24T02:57:28.412Z,1001.00
2019-03-24T02:58:28.407Z,1000.98
2019-03-24T02:59:28.388Z,1000.97
2019-03-24T03:00:28.378Z,1000.99
2019-03-24T03:01:28.365Z,1000.97
2019-03-24T03:02:28.353Z,1000.92
2019-03-24T03:03:28.341Z,1000.96
2019-03-24T03:04:28.334Z,1000.89
2019-03-24T03:05:28.323Z,1000.92
2019-03-24T03:06:28.308Z,1000.90
2019-03-24T03:07:28.296Z,1000.87
2019-03-24T03:08:28.289Z,1001.02
2019-03-24T03:09:28.275Z,1000.95
2019-03-24T03:10:28.268Z,1000.90
2019-03-24T03:11:28.253Z,1000.99
2019-03-24T03:12:28.242Z,1001.02
2019-03-24T03:13:28.233Z,1001.04
2019-03-24T03:14:28.227Z,1001.02
2019-03-24T03:15:28.211Z,1001.01
2019-03-24T03:16:38.331Z,1001.02
2019-03-24T03:17:29.201Z,1000.98
2019-03-24T03:18:28.178Z,1001.02
2019-03-24T03:19:28.165Z,1000.97
2019-03-24T03:20:28.201Z,1001.05
2019-03-24T03:21:28.142Z,1001.05
2019-03-24T03:22:28.142Z,1001.01
2019-03-24T03:23:28.128Z,1001.03
2019-03-24T03:24:28.110Z,1001.02
2019-03-24T03:25:28.099Z,1001.06
2019-03-24T03:26:28.090Z,1001.05
2019-03-24T03:27:28.084Z,1001.01
2019-03-24T03:28:28.073Z,1000.98
2019-03-24T03:29:28.062Z,1000.97
2019-03-24T03:30:28.052Z,1000.96
2019-03-24T03:31:28.033Z,1000.98
2019-03-24T03:32:28.030Z,1000.94
2019-03-24T03:33:28.030Z,1000.95
2019-03-24T03:34:28.005Z,1000.97
2019-03-24T03:35:28.002Z,1000.95
2019-03-24T03:36:28.194Z,1000.99
2019-03-24T03:37:27.970Z,1000.97
2019-03-24T03:38:27.960Z,1000.99
2019-03-24T03:39:27.949Z,1001.01
2019-03-24T03:40:27.934Z,1000.97
2019-03-24T03:41:27.927Z,1001.03
2019-03-24T03:42:27.911Z,1001.01
2019-03-24T03:43:27.905Z,1000.92
2019-03-24T03:44:27.890Z,1000.97
2019-03-24T03:45:27.909Z,1000.97
2019-03-24T03:46:27.869Z,1001.00
2019-03-24T03:47:27.870Z,1000.99
2019-03-24T03:48:27.843Z,1000.97
2019-03-24T03:49:27.844Z,1000.98
2019-03-24T03:50:27.822Z,1000.92
2019-03-24T03:51:27.817Z,1000.92
2019-03-24T03:52:27.813Z,1000.94
2019-03-24T03:53:27.794Z,1000.93
2019-03-24T03:54:27.854Z,1001.00
2019-03-24T03:55:27.772Z,1000.91
2019-03-24T03:56:27.761Z,1000.89
2019-03-24T03:57:27.749Z,1000.98
2019-03-24T03:58:27.736Z,1000.97
2019-03-24T03:59:27.727Z,1001.06
2019-03-24T04:00:27.717Z,1001.07
2019-03-24T04:01:27.700Z,1001.03
2019-03-24T04:02:27.696Z,1001.00
2019-03-24T04:03:27.680Z,1001.05
2019-03-24T04:04:27.668Z,1001.07
2019-03-24T04:05:27.656Z,1001.07
2019-03-24T04:06:27.648Z,1001.07
2019-03-24T04:07:27.638Z,1001.12
2019-03-24T04:08:27.628Z,1001.15
2019-03-24T04:09:27.618Z,1001.09
2019-03-24T04:10:27.598Z,1001.16
2019-03-24T04:11:27.592Z,1001.17
2019-03-24T04:12:27.579Z,1001.22
2019-03-24T04:13:27.571Z,1001.16
2019-03-24T04:14:27.557Z,1001.13
2019-03-24T04:15:27.545Z,1001.15
2019-03-24T04:16:27.536Z,1001.11
2019-03-24T04:17:27.527Z,1001.16
2019-03-24T04:18:27.607Z,1001.14
2019-03-24T04:19:27.502Z,1001.12
2019-03-24T04:20:27.501Z,1001.16
2019-03-24T04:21:27.478Z,1001.18
2019-03-24T04:22:27.467Z,1001.09
2019-03-24T04:23:27.459Z,1001.08
2019-03-24T04:24:27.450Z,1001.06
2019-03-24T04:25:27.450Z,1001.11
2019-03-24T04:26:27.437Z,1001.10
2019-03-24T04:27:27.421Z,1001.09
2019-03-24T04:28:27.406Z,1001.09
2019-03-24T04:29:27.396Z,1001.09
2019-03-24T04:30:27.381Z,1001.13
2019-03-24T04:31:27.373Z,1001.11
2019-03-24T04:32:27.360Z,1001.16
2019-03-24T04:33:27.349Z,1001.14
2019-03-24T04:34:27.337Z,1001.16
2019-03-24T04:35:27.321Z,1001.12
2019-03-24T04:36:27.313Z,1001.16
2019-03-24T04:37:27.300Z,1001.06
2019-03-24T04:38:27.293Z,1001.11
2019-03-24T04:39:27.280Z,1001.14
2019-03-24T04:40:27.269Z,1001.15
2019-03-24T04:41:27.255Z,1001.15
2019-03-24T04:42:27.244Z,1001.18
2019-03-24T04:43:27.233Z,1001.16
2019-03-24T04:44:27.225Z,1001.20
2019-03-24T04:45:27.213Z,1001.16
2019-03-24T04:46:27.198Z,1001.15
2019-03-24T04:47:27.202Z,1001.22
2019-03-24T04:48:27.181Z,1001.15
2019-03-24T04:49:27.166Z,1001.14
2019-03-24T04:50:27.155Z,1001.23
2019-03-24T04:51:27.142Z,1001.19
2019-03-24T04:52:27.131Z,1001.20
2019-03-24T04:53:27.120Z,1001.16
2019-03-24T04:54:27.124Z,1001.17
2019-03-24T04:55:27.098Z,1001.21
2019-03-24T04:56:27.208Z,1001.19
2019-03-24T04:57:27.076Z,1001.17
2019-03-24T04:58:27.063Z,1001.20
2019-03-24T04:59:27.064Z,1001.23
2019-03-24T05:00:27.042Z,1001.23
2019-03-24T05:01:27.033Z,1001.32
2019-03-24T05:02:27.027Z,1001.29
2019-03-24T05:03:27.020Z,1001.30
2019-03-24T05:04:27.000Z,1001.29
2019-03-24T05:05:26.992Z,1001.28
2019-03-24T05:06:26.987Z,1001.34
2019-03-24T05:07:26.965Z,1001.28
2019-03-24T05:08:26.953Z,1001.26
2019-03-24T05:09:26.948Z,1001.29
2019-03-24T05:10:26.950Z,1001.29
2019-03-24T05:11:26.923Z,1001.33
2019-03-24T05:12:26.912Z,1001.29
2019-03-24T05:13:26.904Z,1001.31
2019-03-24T05:14:26.888Z,1001.35
2019-03-24T05:15:26.878Z,1001.34
2019-03-24T05:16:26.867Z,1001.32
2019-03-24T05:17:27.482Z,1001.36
2019-03-24T05:18:26.858Z,1001.41
2019-03-24T05:19:26.838Z,1001.33
2019-03-24T05:20:26.822Z,1001.37
2019-03-24T05:21:26.813Z,1001.39
2019-03-24T05:22:26.804Z,1001.39
2019-03-24T05:23:26.791Z,1001.42
2019-03-24T05:24:26.779Z,1001.46
2019-03-24T05:25:26.769Z,1001.42
2019-03-24T05:26:26.773Z,1001.42
2019-03-24T05:27:26.753Z,1001.43
2019-03-24T05:28:26.735Z,1001.53
2019-03-24T05:29:26.725Z,1001.43
2019-03-24T05:30:26.716Z,1001.42
2019-03-24T05:31:26.705Z,1001.45
2019-03-24T05:32:26.689Z,1001.43
2019-03-24T05:33:26.680Z,1001.38
2019-03-24T05:34:26.669Z,1001.42
2019-03-24T05:35:26.657Z,1001.45
2019-03-24T05:36:26.649Z,1001.48
2019-03-24T05:37:26.638Z,1001.50
2019-03-24T05:38:26.621Z,1001.51
2019-03-24T05:39:26.612Z,1001.57
2019-03-24T05:40:26.603Z,1001.54
2019-03-24T05:41:26.596Z,1001.46
2019-03-24T05:42:26.587Z,1001.56
2019-03-24T05:43:26.576Z,1001.56
2019-03-24T05:44:26.561Z,1001.57
2019-03-24T05:45:26.550Z,1001.54
2019-03-24T05:46:26.537Z,1001.58
2019-03-24T05:47:36.638Z,1001.57
2019-03-24T05:48:27.528Z,1001.61
2019-03-24T05:49:26.503Z,1001.50
2019-03-24T05:50:26.492Z,1001.57
2019-03-24T05:51:26.483Z,1001.58
2019-03-24T05:52:27.661Z,1001.57
2019-03-24T05:53:26.458Z,1001.59
2019-03-24T05:54:26.446Z,1001.57
2019-03-24T05:55:26.437Z,1001.57
2019-03-24T05:56:26.428Z,1001.57
2019-03-24T05:57:26.415Z,1001.60
2019-03-24T05:58:26.402Z,1001.61
2019-03-24T05:59:26.396Z,1001.61
2019-03-24T06:00:26.379Z,1001.59
2019-03-24T06:01:26.374Z,1001.57
2019-03-24T06:02:26.359Z,1001.62
2019-03-24T06:03:26.350Z,1001.53
2019-03-24T06:04:26.339Z,1001.62
2019-03-24T06:05:26.327Z,1001.62
2019-03-24T06:06:26.314Z,1001.64
2019-03-24T06:07:26.304Z,1001.61
2019-03-24T06:08:26.292Z,1001.61
2019-03-24T06:09:26.285Z,1001.63
2019-03-24T06:10:26.285Z,1001.69
2019-03-24T06:11:26.259Z,1001.65
2019-03-24T06:12:26.245Z,1001.66
2019-03-24T06:13:26.263Z,1001.68
2019-03-24T06:14:26.227Z,1001.65
2019-03-24T06:15:26.217Z,1001.71
2019-03-24T06:16:26.207Z,1001.66
2019-03-24T06:17:26.195Z,1001.71
2019-03-24T06:18:26.180Z,1001.66
2019-03-24T06:19:26.170Z,1001.61
2019-03-24T06:20:26.187Z,1001.69
2019-03-24T06:21:26.149Z,1001.70
2019-03-24T06:22:26.142Z,1001.68
2019-03-24T06:23:26.128Z,1001.63
2019-03-24T06:24:26.117Z,1001.71
2019-03-24T06:25:26.103Z,1001.66
2019-03-24T06:26:26.113Z,1001.71
2019-03-24T06:27:26.085Z,1001.75
2019-03-24T06:28:26.084Z,1001.73
2019-03-24T06:29:26.065Z,1001.81
2019-03-24T06:30:26.051Z,1001.76
2019-03-24T06:31:26.042Z,1001.73
2019-03-24T06:32:26.029Z,1001.76
2019-03-24T06:33:26.025Z,1001.75
2019-03-24T06:34:26.008Z,1001.81
2019-03-24T06:35:25.993Z,1001.75
2019-03-24T06:36:25.982Z,1001.77
2019-03-24T06:37:25.975Z,1001.77
2019-03-24T06:38:25.974Z,1001.79
2019-03-24T06:39:25.949Z,1001.77
2019-03-24T06:40:25.941Z,1001.78
2019-03-24T06:41:25.936Z,1001.80
2019-03-24T06:42:25.920Z,1001.80
2019-03-24T06:43:25.910Z,1001.72
2019-03-24T06:44:25.898Z,1001.75
2019-03-24T06:45:28.634Z,1001.73
2019-03-24T06:46:25.875Z,1001.72
2019-03-24T06:47:25.861Z,1001.73
2019-03-24T06:48:25.847Z,1001.78
2019-03-24T06:49:25.839Z,1001.76
2019-03-24T06:50:25.831Z,1001.73
2019-03-24T06:51:26.128Z,1001.74
2019-03-24T06:52:25.806Z,1001.81
2019-03-24T06:53:25.795Z,1001.73
2019-03-24T06:54:25.784Z,1001.80
2019-03-24T06:55:25.773Z,1001.73
2019-03-24T06:56:25.762Z,1001.67
2019-03-24T06:57:25.749Z,1001.71
2019-03-24T06:58:25.747Z,1001.76
2019-03-24T06:59:25.730Z,1001.76
2019-03-24T07:00:25.718Z,1001.72
2019-03-24T07:01:25.716Z,1001.74
2019-03-24T07:02:25.694Z,1001.79
2019-03-24T07:03:25.687Z,1001.79
2019-03-24T07:04:25.723Z,1001.83
2019-03-24T07:05:25.676Z,1001.82
2019-03-24T07:06:25.671Z,1001.77
2019-03-24T07:07:25.713Z,1001.80
2019-03-24T07:08:25.658Z,1001.86
2019-03-24T07:09:25.665Z,1001.87
2019-03-24T07:10:25.670Z,1001.83
2019-03-24T07:11:25.600Z,1001.83
2019-03-24T07:12:25.612Z,1001.85
2019-03-24T07:13:25.597Z,1001.83
2019-03-24T07:14:25.568Z,1001.84
2019-03-24T07:15:25.556Z,1001.81
2019-03-24T07:16:25.542Z,1001.79
2019-03-24T07:17:25.536Z,1001.85
2019-03-24T07:18:25.526Z,1001.83
2019-03-24T07:19:25.515Z,1001.89
2019-03-24T07:20:25.498Z,1001.84
2019-03-24T07:21:25.487Z,1001.87
2019-03-24T07:22:25.476Z,1001.84
2019-03-24T07:23:25.467Z,1001.82
2019-03-24T07:24:25.454Z,1001.82
2019-03-24T07:25:25.445Z,1001.81
2019-03-24T07:26:25.431Z,1001.86
2019-03-24T07:27:25.416Z,1001.83
2019-03-24T07:28:25.417Z,1001.86
2019-03-24T07:29:25.405Z,1001.92
2019-03-24T07:30:25.385Z,1001.89
2019-03-24T07:31:25.375Z,1001.90
2019-03-24T07:32:25.372Z,1001.90
2019-03-24T07:33:25.355Z,1001.98
2019-03-24T07:34:25.384Z,1002.03
2019-03-24T07:35:25.330Z,1001.94
2019-03-24T07:36:25.323Z,1002.00
2019-03-24T07:37:25.313Z,1002.03
2019-03-24T07:38:25.323Z,1002.02
2019-03-24T07:39:25.290Z,1001.98
2019-03-24T07:40:25.290Z,1002.00
2019-03-24T07:41:25.271Z,1002.01
2019-03-24T07:42:25.252Z,1002.02
2019-03-24T07:43:25.264Z,1002.05
2019-03-24T07:44:25.232Z,1002.05
2019-03-24T07:45:25.224Z,1002.06
2019-03-24T07:46:25.214Z,1002.08
2019-03-24T07:47:25.213Z,1002.07
2019-03-24T07:48:25.191Z,1002.07
2019-03-24T07:49:25.182Z,1002.06
2019-03-24T07:50:25.168Z,1002.05
2019-03-24T07:51:25.159Z,1002.10
2019-03-24T07:52:25.150Z,1002.03
2019-03-24T07:53:25.145Z,1002.07
2019-03-24T07:54:25.122Z,1002.09
2019-03-24T07:55:25.128Z,1002.09
2019-03-24T07:56:25.108Z,1002.09
2019-03-24T07:57:25.089Z,1002.12
2019-03-24T07:58:25.083Z,1002.15
2019-03-24T07:59:25.073Z,1002.11
2019-03-24T08:00:25.063Z,1002.15
2019-03-24T08:01:25.095Z,1002.15
2019-03-24T08:02:25.032Z,1002.19
2019-03-24T08:03:25.027Z,1002.14
2019-03-24T08:04:25.027Z,1002.09
2019-03-24T08:05:25.020Z,1002.13
2019-03-24T08:06:24.993Z,1002.14
2019-03-24T08:07:24.982Z,1002.18
2019-03-24T08:08:24.972Z,1002.18
2019-03-24T08:09:24.962Z,1002.18
2019-03-24T08:10:24.971Z,1002.18
2019-03-24T08:11:24.943Z,1002.21
2019-03-24T08:12:24.929Z,1002.22
2019-03-24T08:13:24.915Z,1002.23
2019-03-24T08:14:24.905Z,1002.15
2019-03-24T08:15:24.891Z,1002.19
2019-03-24T08:16:24.893Z,1002.26
2019-03-24T08:17:24.875Z,1002.22
2019-03-24T08:18:29.869Z,1002.19
2019-03-24T08:19:25.923Z,1002.26
2019-03-24T08:20:24.848Z,1002.27
2019-03-24T08:21:24.827Z,1002.22
2019-03-24T08:22:24.833Z,1002.23
2019-03-24T08:23:24.810Z,1002.30
2019-03-24T08:24:24.800Z,1002.29
2019-03-24T08:25:24.788Z,1002.25
2019-03-24T08:26:24.796Z,1002.25
2019-03-24T08:27:24.767Z,1002.28
2019-03-24T08:28:24.751Z,1002.20
2019-03-24T08:29:24.747Z,1002.31
2019-03-24T08:30:24.735Z,1002.22
2019-03-24T08:31:24.729Z,1002.30
2019-03-24T08:32:24.717Z,1002.22
2019-03-24T08:33:24.699Z,1002.33
2019-03-24T08:34:24.691Z,1002.37
2019-03-24T08:35:24.681Z,1002.31
2019-03-24T08:36:24.675Z,1002.33
2019-03-24T08:37:24.668Z,1002.24
2019-03-24T08:38:24.643Z,1002.29
2019-03-24T08:39:24.722Z,1002.28
2019-03-24T08:40:24.628Z,1002.29
2019-03-24T08:41:24.622Z,1002.28
2019-03-24T08:42:24.609Z,1002.32
2019-03-24T08:43:24.592Z,1002.28
2019-03-24T08:44:24.585Z,1002.34
2019-03-24T08:45:24.579Z,1002.31
2019-03-24T08:46:24.564Z,1002.35
2019-03-24T08:47:24.554Z,1002.34
2019-03-24T08:48:24.542Z,1002.35
2019-03-24T08:49:24.532Z,1002.39
2019-03-24T08:50:24.518Z,1002.35
2019-03-24T08:51:24.518Z,1002.35
2019-03-24T08:52:24.511Z,1002.40
2019-03-24T08:53:24.488Z,1002.30
2019-03-24T08:54:24.668Z,1002.34
2019-03-24T08:55:24.573Z,1002.39
2019-03-24T08:56:24.486Z,1002.39
2019-03-24T08:57:24.449Z,1002.43
2019-03-24T08:58:24.554Z,1002.41
2019-03-24T08:59:24.494Z,1002.39
2019-03-24T09:00:30.465Z,1002.27
2019-03-24T09:01:25.403Z,1002.40
2019-03-24T09:02:24.583Z,1002.41
2019-03-24T09:03:24.382Z,1002.41
2019-03-24T09:04:24.371Z,1002.37
2019-03-24T09:05:24.604Z,1002.40
2019-03-24T09:06:24.359Z,1002.43
2019-03-24T09:07:24.350Z,1002.45
2019-03-24T09:08:24.330Z,1002.42
2019-03-24T09:09:24.344Z,1002.41
2019-03-24T09:10:24.313Z,1002.40
2019-03-24T09:11:31.294Z,1002.42
2019-03-24T09:12:25.378Z,1002.40
2019-03-24T09:13:24.284Z,1002.42
2019-03-24T09:14:24.285Z,1002.43
2019-03-24T09:15:24.330Z,1002.38
2019-03-24T09:16:24.252Z,1002.40
2019-03-24T09:17:24.282Z,1002.39
2019-03-24T09:18:24.234Z,1002.33
2019-03-24T09:19:24.222Z,1002.38
2019-03-24T09:20:24.250Z,1002.29
2019-03-24T09:21:24.209Z,1002.37
2019-03-24T09:22:24.193Z,1002.32
2019-03-24T09:23:24.213Z,1002.36
2019-03-24T09:24:24.231Z,1002.28
2019-03-24T09:25:24.208Z,1002.32
2019-03-24T09:26:24.150Z,1002.23
2019-03-24T09:27:24.228Z,1002.32
2019-03-24T09:28:24.163Z,1002.28
2019-03-24T09:29:24.118Z,1002.27
2019-03-24T09:30:24.111Z,1002.33
2019-03-24T09:31:24.097Z,1002.35
2019-03-24T09:32:24.093Z,1002.33
2019-03-24T09:33:24.081Z,1002.31
2019-03-24T09:34:24.181Z,1002.29
2019-03-24T09:35:24.062Z,1002.23
2019-03-24T09:36:24.050Z,1002.31
2019-03-24T09:37:24.038Z,1002.26
2019-03-24T09:38:24.033Z,1002.18
2019-03-24T09:39:24.079Z,1002.23
2019-03-24T09:40:24.013Z,1002.20
2019-03-24T09:41:24.002Z,1002.19
2019-03-24T09:42:23.993Z,1002.21
2019-03-24T09:43:23.995Z,1002.18
2019-03-24T09:44:23.970Z,1002.25
2019-03-24T09:45:23.960Z,1002.19
2019-03-24T09:46:23.949Z,1002.21
2019-03-24T09:47:23.938Z,1002.17
2019-03-24T09:48:23.929Z,1002.16
2019-03-24T09:49:23.925Z,1002.23
2019-03-24T09:50:23.910Z,1002.25
2019-03-24T09:51:23.902Z,1002.25
2019-03-24T09:52:23.898Z,1002.21
2019-03-24T09:53:23.882Z,1002.20
2019-03-24T09:54:23.871Z,1002.20
2019-03-24T09:55:23.860Z,1002.19
2019-03-24T09:56:23.855Z,1002.22
2019-03-24T09:57:23.847Z,1002.20
2019-03-24T09:58:23.836Z,1002.18
2019-03-24T09:59:23.825Z,1002.18
2019-03-24T10:00:23.816Z,1002.16
2019-03-24T10:01:23.808Z,1002.11
2019-03-24T10:02:23.799Z,1002.15
2019-03-24T10:03:23.787Z,1002.07
2019-03-24T10:04:23.779Z,1002.06
2019-03-24T10:05:23.765Z,1002.11
2019-03-24T10:06:23.761Z,1002.03
2019-03-24T10:07:23.749Z,1002.01
2019-03-24T10:08:23.741Z,1002.00
2019-03-24T10:09:23.736Z,1002.07
2019-03-24T10:10:23.734Z,1002.06
2019-03-24T10:11:23.747Z,1002.00
2019-03-24T10:12:23.703Z,1002.03
2019-03-24T10:13:23.687Z,1002.03
2019-03-24T10:14:23.685Z,1001.98
2019-03-24T10:15:23.676Z,1001.95
2019-03-24T10:16:23.660Z,1002.01
2019-03-24T10:17:23.652Z,1001.92
2019-03-24T10:18:23.642Z,1001.98
2019-03-24T10:19:23.637Z,1001.98
2019-03-24T10:20:23.632Z,1001.98
2019-03-24T10:21:23.619Z,1001.98
2019-03-24T10:22:23.604Z,1001.97
2019-03-24T10:23:23.602Z,1002.02
2019-03-24T10:24:23.603Z,1001.95
2019-03-24T10:25:23.578Z,1001.92
2019-03-24T10:26:23.569Z,1001.95
2019-03-24T10:27:23.560Z,1001.94
2019-03-24T10:28:23.553Z,1001.93
2019-03-24T10:29:23.539Z,1001.91
2019-03-24T10:30:23.538Z,1001.93
2019-03-24T10:31:23.521Z,1001.89
2019-03-24T10:32:23.521Z,1001.96
2019-03-24T10:33:23.501Z,1001.84
2019-03-24T10:34:23.544Z,1001.91
2019-03-24T10:35:23.498Z,1001.85
2019-03-24T10:36:23.481Z,1001.83
2019-03-24T10:37:23.474Z,1001.88
2019-03-24T10:38:23.462Z,1001.87
2019-03-24T10:39:23.456Z,1001.81
2019-03-24T10:40:28.493Z,1001.80
2019-03-24T10:41:24.430Z,1001.80
2019-03-24T10:42:23.557Z,1001.79
2019-03-24T10:43:23.408Z,1001.69
2019-03-24T10:44:23.405Z,1001.78
2019-03-24T10:45:23.395Z,1001.81
2019-03-24T10:46:23.385Z,1001.69
2019-03-24T10:47:23.375Z,1001.72
2019-03-24T10:48:33.301Z,1001.64
2019-03-24T10:49:25.350Z,1001.74
2019-03-24T10:50:23.345Z,1001.71
2019-03-24T10:51:23.347Z,1001.72
2019-03-24T10:52:23.333Z,1001.72
2019-03-24T10:53:23.353Z,1001.68
2019-03-24T10:54:23.319Z,1001.68
2019-03-24T10:55:23.310Z,1001.69
2019-03-24T10:56:23.294Z,1001.65
2019-03-24T10:57:23.306Z,1001.60
2019-03-24T10:58:23.274Z,1001.61
2019-03-24T10:59:23.272Z,1001.62
2019-03-24T11:00:23.263Z,1001.63
2019-03-24T11:01:23.252Z,1001.63
2019-03-24T11:02:23.248Z,1001.59
2019-03-24T11:03:23.240Z,1001.58
2019-03-24T11:04:23.223Z,1001.59
2019-03-24T11:05:23.299Z,1001.55
2019-03-24T11:06:23.207Z,1001.50
2019-03-24T11:07:23.199Z,1001.55
2019-03-24T11:08:23.189Z,1001.45
2019-03-24T11:09:23.180Z,1001.51
2019-03-24T11:10:23.171Z,1001.46
2019-03-24T11:11:23.166Z,1001.48
2019-03-24T11:12:23.156Z,1001.51
2019-03-24T11:13:23.144Z,1001.41
2019-03-24T11:14:23.132Z,1001.43
2019-03-24T11:15:23.127Z,1001.42
2019-03-24T11:16:23.119Z,1001.49
2019-03-24T11:17:23.113Z,1001.45
2019-03-24T11:18:23.120Z,1001.45
2019-03-24T11:19:23.097Z,1001.40
2019-03-24T11:20:23.084Z,1001.44
2019-03-24T11:21:23.079Z,1001.42
2019-03-24T11:22:23.071Z,1001.37
2019-03-24T11:23:23.056Z,1001.41
2019-03-24T11:24:23.059Z,1001.41
2019-03-24T11:25:23.050Z,1001.34
2019-03-24T11:26:23.034Z,1001.32
2019-03-24T11:27:23.027Z,1001.28
2019-03-24T11:28:23.037Z,1001.30
2019-03-24T11:29:23.007Z,1001.30
2019-03-24T11:30:22.994Z,1001.34
2019-03-24T11:31:22.991Z,1001.26
2019-03-24T11:32:22.981Z,1001.23
2019-03-24T11:33:23.267Z,1001.28
2019-03-24T11:34:22.987Z,1001.27
2019-03-24T11:35:23.428Z,1001.27
2019-03-24T11:36:24.050Z,1001.17
2019-03-24T11:37:22.973Z,1001.22
2019-03-24T11:38:22.945Z,1001.17
2019-03-24T11:39:23.605Z,1001.16
2019-03-24T11:40:22.975Z,1001.13
2019-03-24T11:41:22.907Z,1001.11
2019-03-24T11:42:22.894Z,1001.14
2019-03-24T11:43:22.886Z,1001.10
2019-03-24T11:44:22.879Z,1001.00
2019-03-24T11:45:22.866Z,1001.05
2019-03-24T11:46:22.858Z,1001.06
2019-03-24T11:47:26.872Z,1001.09
2019-03-24T11:48:22.840Z,1001.06
2019-03-24T11:49:22.835Z,1001.07
2019-03-24T11:50:22.823Z,1001.07
2019-03-24T11:51:22.815Z,1000.99
2019-03-24T11:52:22.812Z,1001.00
2019-03-24T11:53:22.800Z,1000.96
2019-03-24T11:54:22.794Z,1001.00
2019-03-24T11:55:22.782Z,1000.95
2019-03-24T11:56:22.778Z,1000.95
2019-03-24T11:57:22.771Z,1000.87
2019-03-24T11:58:22.759Z,1000.91
2019-03-24T11:59:22.750Z,1000.90
2019-03-24T12:00:22.741Z,1000.84
2019-03-24T12:01:22.728Z,1000.80
2019-03-24T12:02:22.722Z,1000.90
2019-03-24T12:03:22.715Z,1000.81
2019-03-24T12:04:22.704Z,1000.86
2019-03-24T12:05:22.694Z,1000.79